Time;durP1;ratioP1;P1;durP2;ratioP2;P2;SDS_P1;SDS_P2;PMS_P1;PMS_P2;Temp;Humidity;BMP_temperature;BMP_pressure;BME280_temperature;BME280_humidity;BME280_pressure;Samples;Min_cycle;Max_cycle;Signal;HPM_P1;HPM_P2
2022/03/29 00:01:31;;;;;;;0.40;0.30;;;;;;;7.09;87.29;100857.84;5073101;28;20507;-73
2022/03/29 00:03:57;;;;;;;0.40;0.30;;;;;;;7.07;87.75;100854.59;5073061;28;20503;-73
2022/03/29 00:06:25;;;;;;;0.40;0.30;;;;;;;7.08;87.70;100850.81;5073510;28;20437;-73
2022/03/29 00:08:51;;;;;;;0.40;0.30;;;;;;;7.11;87.81;100844.09;5073353;28;20445;-72
2022/03/29 00:11:18;;;;;;;0.40;0.30;;;;;;;7.11;87.48;100838.72;5073358;28;20472;-73
2022/03/29 00:13:44;;;;;;;0.40;0.30;;;;;;;7.07;87.59;100838.44;5073400;28;20445;-73
2022/03/29 00:16:11;;;;;;;0.40;0.30;;;;;;;7.02;87.54;100836.56;5073165;28;20493;-73
2022/03/29 00:18:37;;;;;;;0.50;0.40;;;;;;;7.00;88.22;100835.25;5073284;28;20446;-73
2022/03/29 00:21:04;;;;;;;0.40;0.30;;;;;;;6.97;88.22;100830.38;5072867;28;20978;-71
2022/03/29 00:23:31;;;;;;;0.40;0.30;;;;;;;6.98;88.32;100832.00;5073172;28;20495;-72
2022/03/29 00:25:58;;;;;;;0.40;0.30;;;;;;;7.00;87.97;100832.53;5073222;28;20429;-72
2022/03/29 00:28:24;;;;;;;0.40;0.30;;;;;;;7.02;87.63;100846.53;5073158;28;20514;-73
2022/03/29 00:30:51;;;;;;;0.40;0.30;;;;;;;6.97;86.05;100850.03;5073151;28;20465;-73
2022/03/29 00:33:17;;;;;;;0.83;0.83;;;;;;;6.99;86.93;100855.16;5073124;28;20437;-74
2022/03/29 00:35:44;;;;;;;0.40;0.30;;;;;;;7.01;87.03;100848.44;5073036;28;20491;-74
2022/03/29 00:38:10;;;;;;;0.40;0.30;;;;;;;7.05;86.11;100843.31;5073037;28;20449;-74
2022/03/29 00:40:38;;;;;;;0.40;0.30;;;;;;;7.08;86.72;100838.19;5072981;28;20473;-73
2022/03/29 00:43:05;;;;;;;0.40;0.30;;;;;;;7.13;87.36;100840.06;5072898;28;20518;-73
2022/03/29 00:45:31;;;;;;;0.40;0.30;;;;;;;7.01;88.78;100831.47;5073065;28;20445;-74
2022/03/29 00:47:58;;;;;;;0.40;0.30;;;;;;;7.10;88.31;100831.72;5073776;28;20441;-73
2022/03/29 00:50:24;;;;;;;0.40;0.30;;;;;;;7.18;87.84;100831.19;5077133;28;20464;-73
2022/03/29 00:52:51;;;;;;;0.40;0.30;;;;;;;7.20;87.82;100827.13;5077173;28;20445;-74
2022/03/29 00:55:17;;;;;;;0.80;0.80;;;;;;;7.26;87.71;100826.03;5076897;28;20485;-74
2022/03/29 00:57:48;;;;;;;0.40;0.30;;;;;;;7.30;87.46;100821.72;5077083;28;20448;-73
2022/03/29 01:00:15;;;;;;;0.63;0.63;;;;;;;7.13;88.71;100825.78;5076584;28;20839;-73
2022/03/29 01:02:42;;;;;;;0.40;0.30;;;;;;;7.15;88.55;100821.75;5077018;28;20468;-74
2022/03/29 01:05:09;;;;;;;1.90;1.80;;;;;;;7.22;87.98;100813.38;5076968;28;20449;-72
2022/03/29 01:07:36;;;;;;;0.40;0.30;;;;;;;7.27;88.36;100818.75;5076866;28;20463;-69
2022/03/29 01:10:04;;;;;;;0.40;0.30;;;;;;;7.34;88.44;100812.00;5076477;28;20465;-70
2022/03/29 01:12:31;;;;;;;0.50;0.30;;;;;;;7.36;88.22;100813.63;5076664;28;20460;-70
2022/03/29 01:15:00;;;;;;;0.40;0.40;;;;;;;7.39;88.22;100807.66;5076169;28;20998;-72
2022/03/29 01:17:38;;;;;;;0.83;0.83;;;;;;;7.43;88.18;100808.72;5076507;28;20449;-72
2022/03/29 01:20:08;;;;;;;0.40;0.30;;;;;;;7.47;87.74;100797.13;5076486;28;20468;-72
2022/03/29 01:22:39;;;;;;;0.40;0.30;;;;;;;7.46;88.02;100798.22;5076465;28;20445;-72
2022/03/29 01:25:07;;;;;;;0.40;0.30;;;;;;;7.50;87.56;100798.47;5076175;28;20899;-72
2022/03/29 01:27:34;;;;;;;0.40;0.30;;;;;;;7.50;87.67;100804.69;5076112;28;20441;-72
2022/03/29 01:30:02;;;;;;;0.40;0.30;;;;;;;7.53;87.50;100803.34;5076246;28;20464;-72
2022/03/29 01:32:29;;;;;;;0.40;0.30;;;;;;;7.58;86.75;100800.63;5076213;28;20456;-72
2022/03/29 01:34:57;;;;;;;0.40;0.30;;;;;;;7.59;86.96;100784.16;5076175;28;20860;-72
2022/03/29 01:37:23;;;;;;;0.40;0.30;;;;;;;7.59;87.24;100791.44;5076230;28;20449;-72
2022/03/29 01:39:51;;;;;;;0.40;0.30;;;;;;;7.63;87.10;100786.31;5076184;28;20468;-72
2022/03/29 01:42:18;;;;;;;0.40;0.30;;;;;;;7.58;87.28;100789.84;5076412;28;20468;-72
2022/03/29 01:44:45;;;;;;;0.40;0.30;;;;;;;7.55;87.93;100788.47;5076278;28;20856;-72
2022/03/29 01:47:11;;;;;;;0.83;0.83;;;;;;;7.57;87.73;100777.44;5076017;28;20442;-72
2022/03/29 01:49:38;;;;;;;0.40;0.30;;;;;;;7.58;88.04;100779.84;5075525;28;20464;-73
2022/03/29 01:52:05;;;;;;;0.40;0.30;;;;;;;7.68;87.92;100787.09;5075871;28;20471;-72
2022/03/29 01:54:32;;;;;;;0.40;0.30;;;;;;;7.69;87.88;100791.38;5075893;28;20444;-73
2022/03/29 01:57:00;;;;;;;0.50;0.30;;;;;;;7.74;87.33;100787.84;5075755;28;20491;-72
2022/03/29 02:00:30;;;;;;;0.40;0.30;;;;;;;7.72;87.73;100788.16;5074845;28;20437;-72
2022/03/29 02:02:13;;;;;;;0.40;0.30;;;;;;;7.68;87.33;100779.00;5075308;28;20441;-72
2022/03/29 02:04:39;;;;;;;0.40;0.30;;;;;;;7.70;87.42;100773.31;5075687;28;20437;-72
2022/03/29 02:07:06;;;;;;;0.40;0.30;;;;;;;7.67;87.75;100766.59;5075494;28;20444;-72
2022/03/29 02:09:32;;;;;;;0.40;0.30;;;;;;;7.66;87.66;100769.56;5075522;28;20486;-72
2022/03/29 02:12:01;;;;;;;0.40;0.30;;;;;;;7.72;87.34;100765.78;5075687;28;20480;-72
2022/03/29 02:14:27;;;;;;;0.40;0.30;;;;;;;7.70;87.37;100773.31;5075450;28;20582;-73
2022/03/29 02:16:54;;;;;;;0.40;0.30;;;;;;;7.67;87.31;100766.59;5075435;28;20534;-72
2022/03/29 02:19:20;;;;;;;0.40;0.30;;;;;;;7.59;87.80;100756.41;5075451;28;20520;-72
2022/03/29 02:21:46;;;;;;;0.40;0.30;;;;;;;7.56;87.76;100757.75;5075482;28;20448;-72
2022/03/29 02:24:13;;;;;;;0.40;0.30;;;;;;;7.60;87.77;100760.69;5075459;28;20445;-72
2022/03/29 02:26:39;;;;;;;0.40;0.30;;;;;;;7.57;87.45;100758.56;5075402;28;20441;-72
2022/03/29 02:29:07;;;;;;;0.40;0.30;;;;;;;7.56;87.72;100754.25;5075360;28;20453;-72
2022/03/29 02:31:34;;;;;;;0.60;0.60;;;;;;;7.53;87.81;100755.63;5075295;28;20873;-71
2022/03/29 02:34:09;;;;;;;2.30;2.00;;;;;;;7.50;87.91;100758.06;5075576;28;20445;-72
2022/03/29 02:36:36;;;;;;;0.40;0.30;;;;;;;7.53;88.11;100754.81;5075229;28;20481;-73
2022/03/29 02:39:02;;;;;;;0.40;0.30;;;;;;;7.53;88.19;100752.13;5075206;28;20446;-73
2022/03/29 02:41:29;;;;;;;0.40;0.30;;;;;;;7.56;87.83;100755.03;5074810;28;20868;-74
2022/03/29 02:43:55;;;;;;;0.40;0.30;;;;;;;7.55;88.09;100763.41;5074784;28;20986;-72
2022/03/29 02:46:23;;;;;;;0.40;0.30;;;;;;;7.50;88.47;100769.63;5075140;28;20445;-73
2022/03/29 02:48:49;;;;;;;0.40;0.30;;;;;;;7.45;88.69;100766.97;5075019;28;20445;-73
2022/03/29 02:51:17;;;;;;;0.40;0.30;;;;;;;7.53;88.69;100765.59;5074889;28;20492;-73
2022/03/29 02:53:43;;;;;;;0.40;0.30;;;;;;;7.58;88.59;100768.28;5074910;28;20465;-73
2022/03/29 02:56:10;;;;;;;0.40;0.30;;;;;;;7.48;88.80;100758.34;5074732;28;20484;-73
2022/03/29 02:58:36;;;;;;;0.40;0.30;;;;;;;7.52;88.79;100761.25;5074682;28;20442;-73
2022/03/29 03:01:03;;;;;;;0.40;0.30;;;;;;;7.54;88.69;100764.50;5074273;28;20542;-73
2022/03/29 03:03:31;;;;;;;0.47;0.30;;;;;;;7.61;88.12;100761.50;5074499;28;20437;-73
2022/03/29 03:05:58;;;;;;;0.40;0.30;;;;;;;7.61;87.85;100762.31;5074686;28;20469;-74
2022/03/29 03:08:25;;;;;;;0.40;0.30;;;;;;;7.57;87.88;100755.88;5074578;28;20476;-73
2022/03/29 03:10:51;;;;;;;0.40;0.30;;;;;;;7.52;88.18;100759.38;5074308;28;20535;-72
2022/03/29 03:13:17;;;;;;;0.40;0.30;;;;;;;7.48;88.53;100763.72;5074504;28;20441;-73
2022/03/29 03:15:44;;;;;;;0.40;0.30;;;;;;;7.53;88.39;100754.81;5074393;28;20481;-72
2022/03/29 03:18:11;;;;;;;0.40;0.30;;;;;;;7.55;88.12;100758.84;5074584;28;20449;-73
2022/03/29 03:20:39;;;;;;;0.40;0.30;;;;;;;7.48;88.61;100760.19;5074320;28;20470;-73
2022/03/29 03:23:06;;;;;;;1.03;1.03;;;;;;;7.45;88.54;100760.78;5073848;28;20987;-72
2022/03/29 03:25:32;;;;;;;0.40;0.30;;;;;;;7.42;88.39;100759.44;5074119;28;20464;-72
2022/03/29 03:27:59;;;;;;;0.40;0.30;;;;;;;7.43;88.65;100754.84;5074175;28;20449;-73
2022/03/29 03:30:25;;;;;;;0.40;0.30;;;;;;;7.43;88.45;100761.03;5074121;28;20461;-71
2022/03/29 03:32:54;;;;;;;0.40;0.30;;;;;;;7.44;87.47;100751.09;5073771;28;20449;-73
2022/03/29 03:35:20;;;;;;;0.40;0.30;;;;;;;7.41;86.64;100735.47;5073784;28;20442;-74
2022/03/29 03:37:48;;;;;;;0.40;0.30;;;;;;;7.20;87.10;100735.53;5073836;28;20449;-73
2022/03/29 03:40:15;;;;;;;0.40;0.30;;;;;;;7.17;87.90;100744.16;5073940;28;20507;-73
2022/03/29 03:42:41;;;;;;;0.40;0.30;;;;;;;7.24;86.71;100731.19;5073615;28;20436;-73
2022/03/29 03:45:09;;;;;;;0.40;0.30;;;;;;;7.23;86.77;100739.56;5073643;28;20939;-72
2022/03/29 03:47:36;;;;;;;0.40;0.30;;;;;;;7.24;86.86;100735.78;5073876;28;20449;-73
2022/03/29 03:50:03;;;;;;;0.40;0.30;;;;;;;7.20;86.96;100735.53;5073424;28;21032;-73
2022/03/29 03:52:29;;;;;;;0.40;0.30;;;;;;;7.20;86.43;100746.28;5073375;28;20857;-72
2022/03/29 03:54:57;;;;;;;0.40;0.30;;;;;;;7.23;85.93;100742.25;5073680;28;20874;-73
2022/03/29 03:57:24;;;;;;;0.40;0.30;;;;;;;7.22;85.68;100738.75;5073544;28;20477;-73
2022/03/29 03:59:51;;;;;;;0.40;0.30;;;;;;;7.19;85.39;100738.50;5073309;28;20477;-73
2022/03/29 04:02:18;;;;;;;0.40;0.30;;;;;;;7.21;85.69;100726.34;5073614;28;20434;-73
2022/03/29 04:04:44;;;;;;;0.40;0.30;;;;;;;7.27;85.28;100738.75;5073526;28;20445;-73
2022/03/29 04:07:11;;;;;;;0.40;0.30;;;;;;;7.22;85.30;100736.06;5073458;28;20826;-73
2022/03/29 04:09:39;;;;;;;0.40;0.30;;;;;;;7.18;85.41;100734.19;5073406;28;20487;-74
2022/03/29 04:12:08;;;;;;;0.40;0.30;;;;;;;7.02;86.14;100734.22;5073532;28;20449;-73
2022/03/29 04:14:36;;;;;;;0.40;0.30;;;;;;;7.09;86.31;100736.66;5073371;28;20449;-73
2022/03/29 04:17:04;;;;;;;0.60;0.60;;;;;;;6.96;86.60;100729.94;5073138;28;20484;-73
2022/03/29 04:19:30;;;;;;;0.40;0.30;;;;;;;7.04;86.54;100725.91;5073220;28;20437;-74
2022/03/29 04:21:56;;;;;;;0.40;0.30;;;;;;;7.14;86.32;100727.75;5073434;28;20863;-73
2022/03/29 04:24:23;;;;;;;0.40;0.30;;;;;;;7.11;86.32;100730.97;5072793;28;20457;-73
2022/03/29 04:26:49;;;;;;;0.40;0.30;;;;;;;7.14;86.56;100727.75;5073378;28;20871;-73
2022/03/29 04:29:17;;;;;;;0.40;0.30;;;;;;;7.26;86.11;100720.13;5073310;28;20430;-73
2022/03/29 04:31:43;;;;;;;0.40;0.30;;;;;;;7.30;85.81;100724.72;5073083;28;20464;-73
2022/03/29 04:34:10;;;;;;;0.40;0.30;;;;;;;7.27;86.02;100722.56;5073130;28;20445;-73
2022/03/29 04:36:37;;;;;;;0.40;0.30;;;;;;;7.31;85.83;100723.63;5073086;28;20489;-73
2022/03/29 04:39:04;;;;;;;0.40;0.30;;;;;;;7.23;86.39;100718.81;5073224;28;20442;-73
2022/03/29 04:41:30;;;;;;;0.40;0.30;;;;;;;7.27;86.56;100714.50;5073286;28;20465;-74
2022/03/29 04:43:57;;;;;;;0.40;0.30;;;;;;;7.31;86.27;100710.16;5073083;28;21037;-73
2022/03/29 04:46:25;;;;;;;0.40;0.30;;;;;;;7.38;86.30;100703.66;5073121;28;20438;-74
2022/03/29 04:48:52;;;;;;;0.40;0.30;;;;;;;7.39;86.00;100708.78;5072889;28;20463;-74
2022/03/29 04:51:19;;;;;;;0.40;0.30;;;;;;;7.27;86.62;100708.31;5073128;28;20891;-74
2022/03/29 04:53:45;;;;;;;0.70;0.70;;;;;;;7.30;86.84;100703.19;5072953;28;20460;-73
2022/03/29 04:56:12;;;;;;;0.40;0.30;;;;;;;7.36;86.55;100700.47;5072840;28;20481;-73
2022/03/29 04:58:38;;;;;;;0.50;0.23;;;;;;;7.22;86.88;100706.44;5072694;28;21001;-73
2022/03/29 05:01:05;;;;;;;0.40;0.30;;;;;;;7.19;86.96;100704.28;5072585;28;20487;-73
2022/03/29 05:03:34;;;;;;;0.40;0.30;;;;;;;7.30;86.49;100692.41;5072921;28;20519;-73
2022/03/29 05:06:00;;;;;;;0.40;0.30;;;;;;;7.29;86.73;100696.16;5072789;28;20442;-73
2022/03/29 05:08:27;;;;;;;0.40;0.30;;;;;;;7.36;86.46;100700.47;5072856;28;20449;-73
2022/03/29 05:10:53;;;;;;;0.40;0.30;;;;;;;7.44;86.24;100694.50;5072777;28;20583;-72
2022/03/29 05:13:20;;;;;;;0.40;0.30;;;;;;;7.36;86.23;100695.88;5072575;28;20449;-73
2022/03/29 05:15:46;;;;;;;1.90;1.80;;;;;;;7.33;86.44;100694.53;5072484;28;20942;-72
2022/03/29 05:18:13;;;;;;;0.40;0.30;;;;;;;7.39;86.46;100695.28;5072482;28;20503;-72
2022/03/29 05:20:40;;;;;;;0.40;0.30;;;;;;;7.47;86.12;100685.84;5072593;28;20527;-72
2022/03/29 05:23:08;;;;;;;0.40;0.30;;;;;;;7.50;85.86;100696.06;5072401;28;20966;-71
2022/03/29 05:25:34;;;;;;;0.40;0.30;;;;;;;7.48;86.29;100693.66;5072740;28;20453;-72
2022/03/29 05:28:01;;;;;;;0.40;0.30;;;;;;;7.37;86.72;100689.38;5072261;28;20486;-72
2022/03/29 05:30:29;;;;;;;0.40;0.30;;;;;;;7.43;86.76;100684.78;5072487;28;20816;-72
2022/03/29 05:32:58;;;;;;;0.40;0.30;;;;;;;7.46;86.48;100695.81;5072526;28;20487;-72
2022/03/29 05:35:29;;;;;;;0.40;0.30;;;;;;;7.37;86.28;100691.28;5075416;28;20468;-70
2022/03/29 05:37:58;;;;;;;0.40;0.30;;;;;;;7.37;86.15;100689.38;5076169;28;20477;-71
2022/03/29 05:40:25;;;;;;;0.40;0.30;;;;;;;7.41;85.47;100689.66;5076046;28;20457;-72
2022/03/29 05:42:53;;;;;;;0.40;0.30;;;;;;;7.41;85.29;100686.94;5076106;28;20473;-70
2022/03/29 05:45:20;;;;;;;0.40;0.30;;;;;;;7.46;85.63;100690.41;5075729;28;20473;-72
2022/03/29 05:50:31;;;;;;;0.40;0.30;;;;;;;7.48;83.93;100695.53;5075751;28;20444;-72
2022/03/29 05:53:01;;;;;;;0.73;0.73;;;;;;;7.41;83.79;100697.72;5075705;28;20449;-72
2022/03/29 05:55:27;;;;;;;0.40;0.30;;;;;;;7.38;83.51;100699.06;5075957;28;20832;-72
2022/03/29 05:57:55;;;;;;;0.40;0.30;;;;;;;7.41;83.92;100701.22;5075853;28;20830;-71
2022/03/29 06:00:23;;;;;;;0.40;0.30;;;;;;;7.40;83.54;100690.75;5075463;28;20474;-71
2022/03/29 06:02:49;;;;;;;0.40;0.30;;;;;;;7.43;83.09;100693.66;5075594;28;20533;-71
2022/03/29 06:05:16;;;;;;;0.40;0.30;;;;;;;7.37;83.30;100685.91;5075354;28;20441;-71
2022/03/29 06:07:43;;;;;;;0.70;0.70;;;;;;;7.46;82.76;100686.91;5075680;28;20524;-71
2022/03/29 06:10:11;;;;;;;0.40;0.30;;;;;;;7.48;82.41;100690.13;5075703;28;20511;-71
2022/03/29 06:12:38;;;;;;;0.40;0.30;;;;;;;7.50;82.18;100691.47;5075692;28;20532;-71
2022/03/29 06:15:06;;;;;;;0.40;0.30;;;;;;;7.53;81.65;100693.63;5075651;28;20475;-71
2022/03/29 06:17:34;;;;;;;0.40;0.33;;;;;;;7.50;81.97;100699.56;5075477;28;20491;-74
2022/03/29 06:20:03;;;;;;;0.40;0.40;;;;;;;7.48;81.88;100699.06;5075266;28;20497;-70
2022/03/29 06:22:30;;;;;;;0.40;0.30;;;;;;;7.49;82.34;100692.56;5075480;28;20441;-72
2022/03/29 06:24:58;;;;;;;0.50;0.43;;;;;;;7.56;81.62;100695.75;5075160;28;20953;-70
2022/03/29 06:27:26;;;;;;;0.40;0.30;;;;;;;7.58;81.22;100692.78;5075442;28;20444;-70
2022/03/29 06:29:56;;;;;;;0.40;0.30;;;;;;;7.57;81.40;100691.19;5075397;28;20515;-75
2022/03/29 06:32:23;;;;;;;0.40;0.30;;;;;;;7.66;80.76;100689.53;5075252;28;20495;-72
2022/03/29 06:34:49;;;;;;;0.40;0.30;;;;;;;7.73;80.33;100689.19;5075239;28;20448;-72
2022/03/29 06:37:16;;;;;;;0.40;0.30;;;;;;;7.68;80.42;100687.34;5075162;28;20480;-72
2022/03/29 06:39:42;;;;;;;0.40;0.40;;;;;;;7.79;79.77;100691.59;5075083;28;20472;-72
2022/03/29 06:42:09;;;;;;;0.60;0.60;;;;;;;7.83;79.76;100687.25;5075186;28;20492;-72
2022/03/29 06:44:38;;;;;;;0.40;0.30;;;;;;;7.88;79.25;100690.97;5075034;28;20446;-74
2022/03/29 06:47:06;;;;;;;0.40;0.30;;;;;;;7.97;78.33;100697.38;5074468;28;20495;-72
2022/03/29 06:49:32;;;;;;;0.40;0.30;;;;;;;7.99;76.74;100701.41;5075054;28;20564;-73
2022/03/29 06:51:59;;;;;;;0.50;0.30;;;;;;;7.93;76.51;100693.66;5074928;28;20815;-73
2022/03/29 06:54:27;;;;;;;0.50;0.30;;;;;;;7.95;76.77;100694.97;5074622;28;20532;-75
2022/03/29 06:56:53;;;;;;;0.40;0.30;;;;;;;8.02;75.19;100686.59;5074472;28;21025;-74
2022/03/29 06:59:19;;;;;;;0.40;0.30;;;;;;;8.07;74.14;100691.94;5074795;28;20540;-75
2022/03/29 07:01:47;;;;;;;0.40;0.30;;;;;;;8.12;73.96;100697.28;5074344;28;20496;-74
2022/03/29 07:04:14;;;;;;;0.50;0.30;;;;;;;8.20;73.95;100691.28;5074958;28;20441;-74
2022/03/29 07:06:41;;;;;;;0.40;0.30;;;;;;;8.24;73.47;100700.44;5074733;28;20532;-73
2022/03/29 07:11:53;;;;;;;0.40;0.30;;;;;;;8.45;70.60;100702.97;5074696;28;20404;-73
2022/03/29 07:14:19;;;;;;;0.40;0.30;;;;;;;8.43;69.43;100702.47;5074799;28;20578;-74
2022/03/29 07:16:47;;;;;;;0.40;0.30;;;;;;;8.33;71.17;100696.03;5074281;28;20543;-74
2022/03/29 07:19:14;;;;;;;0.40;0.30;;;;;;;8.37;71.79;100698.19;5074608;28;20823;-73
2022/03/29 07:21:42;;;;;;;0.40;0.30;;;;;;;8.45;71.11;100689.47;5074177;28;20978;-73
2022/03/29 07:24:10;;;;;;;0.40;0.30;;;;;;;8.45;70.09;100695.69;5074198;28;20957;-74
2022/03/29 07:26:37;;;;;;;0.67;0.50;;;;;;;8.41;69.86;100697.34;5074187;28;20876;-74
2022/03/29 07:29:04;;;;;;;0.53;0.53;;;;;;;8.47;68.73;100687.31;5074223;28;20441;-74
2022/03/29 07:31:32;;;;;;;0.40;0.30;;;;;;;8.51;69.70;100691.06;5074045;28;20472;-74
2022/03/29 07:34:00;;;;;;;0.40;0.30;;;;;;;8.55;67.46;100689.41;5073709;28;20969;-75
2022/03/29 07:36:26;;;;;;;0.40;0.30;;;;;;;8.54;68.42;100691.31;5074279;28;20857;-76
2022/03/29 07:38:53;;;;;;;0.40;0.30;;;;;;;8.46;66.03;100686.50;5074690;28;20880;-75
2022/03/29 07:41:19;;;;;;;0.40;0.40;;;;;;;8.47;67.18;100692.72;5076086;28;20473;-76
2022/03/29 07:43:47;;;;;;;0.50;0.30;;;;;;;8.51;67.17;100685.66;5074127;28;20449;-74
2022/03/29 07:46:14;;;;;;;0.40;0.30;;;;;;;8.72;66.85;100681.66;5073949;28;20445;-71
2022/03/29 07:48:41;;;;;;;0.40;0.30;;;;;;;8.80;66.32;100686.41;5073832;28;20442;-73
2022/03/29 07:51:10;;;;;;;0.40;0.30;;;;;;;8.83;66.81;100683.16;5073719;28;20826;-76
2022/03/29 07:53:37;;;;;;;0.40;0.30;;;;;;;8.84;65.90;100698.25;5073751;28;20443;-74
2022/03/29 07:56:04;;;;;;;0.40;0.30;;;;;;;8.83;65.84;100690.47;5073360;28;21000;-75
2022/03/29 07:58:30;;;;;;;1.03;1.03;;;;;;;8.77;65.76;100697.81;5072696;28;20481;-72
2022/03/29 08:00:57;;;;;;;0.40;0.30;;;;;;;8.77;64.69;100691.63;5073223;28;20484;-73
2022/03/29 08:03:27;;;;;;;0.40;0.30;;;;;;;8.68;63.54;100683.31;5073558;28;20851;-74
2022/03/29 08:05:54;;;;;;;0.40;0.30;;;;;;;8.60;63.96;100675.84;5073558;28;20532;-74
2022/03/29 08:08:21;;;;;;;0.40;0.30;;;;;;;8.50;65.25;100674.06;5073435;28;20884;-74
2022/03/29 08:10:49;;;;;;;0.40;0.30;;;;;;;8.64;65.74;100666.09;5073380;28;20461;-75
2022/03/29 08:13:15;;;;;;;0.40;0.30;;;;;;;8.83;65.34;100675.06;5073443;28;20441;-75
2022/03/29 08:15:44;;;;;;;0.40;0.30;;;;;;;9.00;64.32;100668.41;5073304;28;20498;-75
2022/03/29 08:18:10;;;;;;;0.40;0.30;;;;;;;9.08;64.13;100665.84;5073317;28;20481;-76
2022/03/29 08:20:38;;;;;;;0.40;0.30;;;;;;;9.11;64.28;100664.47;5073246;28;20469;-75
2022/03/29 08:23:05;;;;;;;0.40;0.40;;;;;;;9.09;64.06;100658.56;5073300;28;20441;-75
2022/03/29 08:25:35;;;;;;;0.40;0.30;;;;;;;9.17;63.52;100651.72;5073281;28;20445;-75
2022/03/29 08:28:02;;;;;;;0.40;0.30;;;;;;;9.20;62.91;100653.81;5073304;28;20445;-74
2022/03/29 08:30:30;;;;;;;0.40;0.30;;;;;;;9.29;61.92;100647.47;5073232;28;20468;-75
2022/03/29 08:32:57;;;;;;;0.40;0.30;;;;;;;9.29;61.91;100647.47;5073450;28;20441;-70
2022/03/29 08:35:25;;;;;;;0.40;0.30;;;;;;;9.23;61.48;100656.75;5074695;28;20461;-73
2022/03/29 08:37:52;;;;;;;0.40;0.30;;;;;;;9.20;61.78;100649.22;5073114;28;20524;-70
2022/03/29 08:40:22;;;;;;;0.40;0.30;;;;;;;9.16;61.12;100644.69;5073016;28;20465;-75
2022/03/29 08:42:54;;;;;;;0.40;0.30;;;;;;;9.16;61.53;100644.69;5073031;28;20441;-75
2022/03/29 08:45:26;;;;;;;0.40;0.30;;;;;;;9.23;61.43;100643.22;5072996;28;20531;-75
2022/03/29 08:47:55;;;;;;;0.40;0.30;;;;;;;9.32;62.62;100638.00;5072658;28;20895;-75
2022/03/29 08:50:23;;;;;;;4.03;3.80;;;;;;;9.48;61.47;100633.19;5072945;28;20487;-75
2022/03/29 08:52:51;;;;;;;0.40;0.30;;;;;;;9.53;58.76;100641.22;5072917;28;20528;-75
2022/03/29 08:55:18;;;;;;;0.40;0.30;;;;;;;9.40;58.20;100633.84;5073024;28;20495;-75
2022/03/29 08:57:44;;;;;;;0.40;0.30;;;;;;;9.37;58.92;100635.22;5072856;28;20481;-75
2022/03/29 09:00:12;;;;;;;0.40;0.30;;;;;;;9.42;59.89;100628.94;5072663;28;20473;-75
2022/03/29 09:02:39;;;;;;;0.40;0.30;;;;;;;9.44;60.32;100629.47;5072900;28;20452;-75
2022/03/29 09:05:07;;;;;;;0.40;0.30;;;;;;;9.50;60.00;100628.28;5072932;28;20447;-75
2022/03/29 09:07:47;;;;;;;0.40;0.30;;;;;;;9.59;60.25;100613.00;5072884;28;20480;-75
2022/03/29 09:10:14;;;;;;;0.50;0.30;;;;;;;9.74;59.09;100618.19;5075479;28;20489;-75
2022/03/29 09:12:41;;;;;;;0.40;0.30;;;;;;;9.83;58.97;100619.13;5076771;28;20441;-75
2022/03/29 09:15:08;;;;;;;0.40;0.30;;;;;;;9.93;58.52;100615.44;5076796;28;20457;-75
2022/03/29 09:17:38;;;;;;;0.40;0.30;;;;;;;9.88;59.28;100607.41;5076758;28;20550;-75
2022/03/29 09:20:07;;;;;;;0.40;0.30;;;;;;;9.85;57.77;100616.91;5076858;28;20465;-76
2022/03/29 09:22:36;;;;;;;0.40;0.30;;;;;;;9.94;57.23;100617.03;5076651;28;20472;-76
2022/03/29 09:25:03;;;;;;;0.40;0.30;;;;;;;9.94;57.82;100613.53;5076567;28;20469;-76
2022/03/29 09:27:30;;;;;;;0.40;0.30;;;;;;;9.98;58.60;100617.25;5076240;28;20954;-77
2022/03/29 09:30:07;;;;;;;0.40;0.30;;;;;;;10.09;58.20;100611.38;5076090;28;20991;-75
2022/03/29 09:32:34;;;;;;;0.40;0.40;;;;;;;10.03;57.63;100603.63;5076428;28;20498;-75
2022/03/29 09:35:08;;;;;;;0.40;0.30;;;;;;;10.17;57.97;100599.06;5076289;28;20449;-75
2022/03/29 09:37:35;;;;;;;0.40;0.30;;;;;;;10.14;57.38;100612.38;5076479;28;20465;-74
2022/03/29 09:40:02;;;;;;;0.40;0.30;;;;;;;10.18;54.85;100611.50;5076261;28;20457;-75
2022/03/29 09:42:29;;;;;;;0.40;0.30;;;;;;;10.15;55.67;100601.28;5076225;28;20473;-76
2022/03/29 09:44:57;;;;;;;0.40;0.30;;;;;;;10.21;54.48;100599.28;5075937;28;20449;-76
2022/03/29 09:47:27;;;;;;;0.77;0.77;;;;;;;10.28;52.85;100600.53;5075892;28;20449;-76
2022/03/29 09:49:57;;;;;;;0.50;0.30;;;;;;;10.33;52.45;100600.44;5076598;28;20490;-76
2022/03/29 09:52:26;;;;;;;0.40;0.30;;;;;;;10.42;53.80;100584.28;5076079;28;20819;-76
2022/03/29 09:55:13;;;;;;;0.40;0.30;;;;;;;10.61;53.30;100581.47;5075919;28;20444;-75
2022/03/29 09:57:41;;;;;;;0.40;0.30;;;;;;;10.78;51.89;100592.53;5075878;28;20461;-75
2022/03/29 10:00:10;;;;;;;0.40;0.30;;;;;;;10.79;50.69;100588.69;5076061;28;20473;-76
2022/03/29 10:02:38;;;;;;;0.40;0.30;;;;;;;10.70;50.69;100595.13;5075588;28;20788;-75
2022/03/29 10:05:05;;;;;;;0.40;0.30;;;;;;;10.64;50.24;100589.03;5075626;28;20441;-75
2022/03/29 10:07:41;;;;;;;0.40;0.20;;;;;;;10.71;49.93;100581.28;5075793;28;20445;-76
2022/03/29 10:10:09;;;;;;;0.40;0.30;;;;;;;10.72;50.53;100568.56;5075792;28;20483;-75
2022/03/29 10:12:36;;;;;;;0.40;0.30;;;;;;;10.78;51.45;100570.03;5075671;28;20446;-76
2022/03/29 10:15:04;;;;;;;0.40;0.30;;;;;;;10.79;51.79;100571.66;5075514;28;20438;-75
2022/03/29 10:17:32;;;;;;;9.40;2.00;;;;;;;10.83;52.55;100565.31;5075272;28;21017;-76
2022/03/29 10:20:00;;;;;;;0.40;0.40;;;;;;;10.96;52.87;100571.03;5075376;28;20471;-75
2022/03/29 10:22:26;;;;;;;0.40;0.30;;;;;;;10.92;52.31;100565.41;5074802;28;20460;-76
2022/03/29 10:24:54;;;;;;;0.40;0.30;;;;;;;10.90;52.96;100556.00;5075483;28;20495;-76
2022/03/29 10:27:22;;;;;;;0.40;0.30;;;;;;;10.95;52.67;100562.09;5075373;28;20437;-76
2022/03/29 10:29:48;;;;;;;0.40;0.30;;;;;;;10.96;51.91;100560.19;5075361;28;20835;-75
2022/03/29 10:32:28;;;;;;;0.40;0.30;;;;;;;10.95;51.25;100545.03;5075045;28;20943;-75
2022/03/29 10:35:03;;;;;;;0.40;0.20;;;;;;;11.00;49.64;100550.34;5075411;28;20468;-76
2022/03/29 10:37:32;;;;;;;0.40;0.20;;;;;;;11.15;48.80;100541.84;5075236;28;20425;-75
2022/03/29 10:40:03;;;;;;;0.40;0.30;;;;;;;11.13;48.10;100548.72;5075202;28;20835;-75
2022/03/29 10:42:37;;;;;;;0.63;0.63;;;;;;;11.27;48.02;100549.47;5075252;28;20462;-75
2022/03/29 10:45:16;;;;;;;0.40;0.30;;;;;;;11.36;46.57;100540.28;5075166;28;20414;-75
2022/03/29 10:47:44;;;;;;;0.40;0.30;;;;;;;11.51;47.90;100546.44;5074894;28;20957;-75
2022/03/29 10:50:13;;;;;;;0.40;0.30;;;;;;;11.58;47.30;100536.78;5075076;28;20492;-75
2022/03/29 10:52:41;;;;;;;1.80;1.70;;;;;;;11.71;46.97;100531.59;5074956;28;20847;-75
2022/03/29 10:55:19;;;;;;;0.40;0.30;;;;;;;11.86;46.51;100526.63;5074997;28;20481;-75
2022/03/29 10:58:06;;;;;;;0.40;0.30;;;;;;;11.91;45.11;100538.44;5074845;28;20433;-75
2022/03/29 11:00:33;;;;;;;0.40;0.30;;;;;;;11.83;44.22;100535.38;5074208;28;20488;-76
2022/03/29 11:03:24;;;;;;;0.40;0.30;;;;;;;11.94;42.32;100532.41;5074477;28;20854;-75
2022/03/29 11:06:08;;;;;;;0.40;0.30;;;;;;;11.97;42.88;100527.16;5074778;28;20429;-76
2022/03/29 11:08:36;;;;;;;0.40;0.30;;;;;;;12.07;41.49;100528.78;5074690;28;20532;-75
2022/03/29 11:11:05;;;;;;;0.40;0.30;;;;;;;12.14;41.43;100526.44;5074597;28;20461;-76
2022/03/29 11:13:33;;;;;;;0.40;0.30;;;;;;;12.22;41.06;100512.09;5074603;28;20433;-76
2022/03/29 11:16:21;;;;;;;0.40;0.30;;;;;;;12.38;40.95;100515.19;5074556;28;20499;-76
2022/03/29 11:18:47;;;;;;;0.40;0.30;;;;;;;12.47;41.70;100517.94;5073982;28;21048;-76
2022/03/29 11:21:33;;;;;;;0.40;0.30;;;;;;;12.92;40.59;100514.97;5074052;28;21001;-76
2022/03/29 11:24:01;;;;;;;0.40;0.30;;;;;;;13.40;36.91;100512.13;5074383;28;20426;-76
2022/03/29 11:26:29;;;;;;;0.40;0.30;;;;;;;13.79;36.87;100515.75;5074086;28;20938;-76
2022/03/29 11:28:59;;;;;;;0.40;0.30;;;;;;;14.64;36.22;100510.28;5074264;28;20490;-77
2022/03/29 11:31:33;;;;;;;0.40;0.30;;;;;;;14.71;35.27;100499.69;5074305;28;20465;-76
2022/03/29 11:34:00;;;;;;;0.40;0.30;;;;;;;15.41;34.01;100505.41;5074219;28;20417;-76
2022/03/29 11:36:26;;;;;;;0.40;0.30;;;;;;;15.89;33.44;100507.50;5074215;28;20445;-76
2022/03/29 11:38:53;;;;;;;0.40;0.30;;;;;;;16.32;33.27;100502.63;5074019;28;20573;-76
2022/03/29 11:41:22;;;;;;;0.40;0.20;;;;;;;16.57;32.64;100500.69;5074009;28;20465;-76